sensor_id;sensor_type;location;lat;lon;timestamp;P1;durP1;ratioP1;P2;durP2;ratioP2
51248;SDS011;39642;47.556;18.728;2022-08-21T00:00:49;5.50;;;1.80;;
51248;SDS011;39642;47.556;18.728;2022-08-21T00:03:16;6.07;;;2.00;;
51248;SDS011;39642;47.556;18.728;2022-08-21T00:05:46;6.32;;;1.80;;
51248;SDS011;39642;47.556;18.728;2022-08-21T00:08:18;5.40;;;1.67;;
51248;SDS011;39642;47.556;18.728;2022-08-21T00:10:45;5.72;;;1.90;;
51248;SDS011;39642;47.556;18.728;2022-08-21T00:13:12;5.03;;;1.60;;
51248;SDS011;39642;47.556;18.728;2022-08-21T00:15:39;6.50;;;1.80;;
51248;SDS011;39642;47.556;18.728;2022-08-21T00:18:06;6.90;;;2.03;;
51248;SDS011;39642;47.556;18.728;2022-08-21T00:20:33;5.07;;;1.80;;
51248;SDS011;39642;47.556;18.728;2022-08-21T00:22:59;4.43;;;1.67;;
51248;SDS011;39642;47.556;18.728;2022-08-21T00:25:26;5.18;;;1.67;;
51248;SDS011;39642;47.556;18.728;2022-08-21T00:27:53;5.32;;;1.80;;
51248;SDS011;39642;47.556;18.728;2022-08-21T00:30:20;5.70;;;1.80;;
51248;SDS011;39642;47.556;18.728;2022-08-21T00:32:47;5.68;;;1.77;;
51248;SDS011;39642;47.556;18.728;2022-08-21T00:35:15;5.22;;;1.70;;
51248;SDS011;39642;47.556;18.728;2022-08-21T00:37:42;6.53;;;2.10;;
51248;SDS011;39642;47.556;18.728;2022-08-21T00:40:11;5.07;;;1.80;;
51248;SDS011;39642;47.556;18.728;2022-08-21T00:42:41;5.82;;;1.70;;
51248;SDS011;39642;47.556;18.728;2022-08-21T00:45:08;6.43;;;1.80;;
51248;SDS011;39642;47.556;18.728;2022-08-21T00:47:35;5.47;;;1.92;;
51248;SDS011;39642;47.556;18.728;2022-08-21T00:50:01;6.12;;;1.70;;
51248;SDS011;39642;47.556;18.728;2022-08-21T00:52:28;6.82;;;1.90;;
51248;SDS011;39642;47.556;18.728;2022-08-21T00:54:57;5.87;;;1.80;;
51248;SDS011;39642;47.556;18.728;2022-08-21T00:57:36;6.03;;;1.85;;
51248;SDS011;39642;47.556;18.728;2022-08-21T01:00:09;5.50;;;1.87;;
51248;SDS011;39642;47.556;18.728;2022-08-21T01:02:38;7.07;;;2.00;;
51248;SDS011;39642;47.556;18.728;2022-08-21T01:05:04;4.43;;;1.70;;
51248;SDS011;39642;47.556;18.728;2022-08-21T01:07:31;5.85;;;1.80;;
51248;SDS011;39642;47.556;18.728;2022-08-21T01:09:57;5.65;;;1.80;;
51248;SDS011;39642;47.556;18.728;2022-08-21T01:12:23;6.00;;;1.98;;
51248;SDS011;39642;47.556;18.728;2022-08-21T01:14:50;7.07;;;2.10;;
51248;SDS011;39642;47.556;18.728;2022-08-21T01:17:16;6.37;;;1.90;;
51248;SDS011;39642;47.556;18.728;2022-08-21T01:19:44;7.20;;;1.98;;
51248;SDS011;39642;47.556;18.728;2022-08-21T01:22:10;6.53;;;2.17;;
51248;SDS011;39642;47.556;18.728;2022-08-21T01:24:36;6.45;;;1.80;;
51248;SDS011;39642;47.556;18.728;2022-08-21T01:27:02;6.85;;;1.98;;
51248;SDS011;39642;47.556;18.728;2022-08-21T01:29:34;6.10;;;1.85;;
51248;SDS011;39642;47.556;18.728;2022-08-21T01:32:08;5.45;;;1.98;;
51248;SDS011;39642;47.556;18.728;2022-08-21T01:34:39;5.30;;;1.92;;
51248;SDS011;39642;47.556;18.728;2022-08-21T01:37:07;7.20;;;2.10;;
51248;SDS011;39642;47.556;18.728;2022-08-21T01:39:34;6.47;;;1.90;;
51248;SDS011;39642;47.556;18.728;2022-08-21T01:42:00;6.25;;;1.90;;
51248;SDS011;39642;47.556;18.728;2022-08-21T01:44:26;7.43;;;2.10;;
51248;SDS011;39642;47.556;18.728;2022-08-21T01:46:53;6.55;;;2.12;;
51248;SDS011;39642;47.556;18.728;2022-08-21T01:49:20;6.45;;;2.10;;
51248;SDS011;39642;47.556;18.728;2022-08-21T01:51:46;8.02;;;2.28;;
51248;SDS011;39642;47.556;18.728;2022-08-21T01:54:12;7.43;;;2.20;;
51248;SDS011;39642;47.556;18.728;2022-08-21T01:56:39;6.47;;;2.12;;
51248;SDS011;39642;47.556;18.728;2022-08-21T01:59:07;6.47;;;2.00;;
51248;SDS011;39642;47.556;18.728;2022-08-21T02:01:33;6.57;;;2.10;;
51248;SDS011;39642;47.556;18.728;2022-08-21T02:03:59;7.90;;;2.25;;
51248;SDS011;39642;47.556;18.728;2022-08-21T02:06:25;7.55;;;2.30;;
51248;SDS011;39642;47.556;18.728;2022-08-21T02:08:52;7.28;;;2.20;;
51248;SDS011;39642;47.556;18.728;2022-08-21T02:11:19;7.37;;;2.05;;
51248;SDS011;39642;47.556;18.728;2022-08-21T02:13:46;7.45;;;2.33;;
51248;SDS011;39642;47.556;18.728;2022-08-21T02:16:12;7.85;;;2.40;;
51248;SDS011;39642;47.556;18.728;2022-08-21T02:18:38;7.90;;;2.42;;
51248;SDS011;39642;47.556;18.728;2022-08-21T02:21:04;7.12;;;2.30;;
51248;SDS011;39642;47.556;18.728;2022-08-21T02:23:31;7.70;;;2.42;;
51248;SDS011;39642;47.556;18.728;2022-08-21T02:25:58;6.90;;;2.20;;
51248;SDS011;39642;47.556;18.728;2022-08-21T02:28:26;7.15;;;2.40;;
51248;SDS011;39642;47.556;18.728;2022-08-21T02:30:53;8.93;;;2.50;;
51248;SDS011;39642;47.556;18.728;2022-08-21T02:33:19;8.13;;;2.40;;
51248;SDS011;39642;47.556;18.728;2022-08-21T02:35:46;7.40;;;2.30;;
51248;SDS011;39642;47.556;18.728;2022-08-21T02:38:18;7.10;;;2.30;;
51248;SDS011;39642;47.556;18.728;2022-08-21T02:40:47;7.50;;;2.30;;
51248;SDS011;39642;47.556;18.728;2022-08-21T02:43:15;7.50;;;2.30;;
51248;SDS011;39642;47.556;18.728;2022-08-21T02:45:43;7.43;;;2.50;;
51248;SDS011;39642;47.556;18.728;2022-08-21T02:48:10;7.47;;;2.22;;
51248;SDS011;39642;47.556;18.728;2022-08-21T02:50:40;7.37;;;2.30;;
51248;SDS011;39642;47.556;18.728;2022-08-21T02:53:16;7.80;;;2.40;;
51248;SDS011;39642;47.556;18.728;2022-08-21T02:55:46;7.20;;;2.28;;
51248;SDS011;39642;47.556;18.728;2022-08-21T02:58:14;7.78;;;2.60;;
51248;SDS011;39642;47.556;18.728;2022-08-21T03:00:43;7.97;;;2.33;;
51248;SDS011;39642;47.556;18.728;2022-08-21T03:03:10;7.47;;;2.42;;
51248;SDS011;39642;47.556;18.728;2022-08-21T03:05:37;8.38;;;2.33;;
51248;SDS011;39642;47.556;18.728;2022-08-21T03:08:04;8.00;;;2.70;;
51248;SDS011;39642;47.556;18.728;2022-08-21T03:10:40;7.90;;;2.20;;
51248;SDS011;39642;47.556;18.728;2022-08-21T03:13:09;6.97;;;2.22;;
51248;SDS011;39642;47.556;18.728;2022-08-21T03:15:36;7.03;;;2.28;;
51248;SDS011;39642;47.556;18.728;2022-08-21T03:18:03;8.10;;;2.50;;
51248;SDS011;39642;47.556;18.728;2022-08-21T03:20:30;6.87;;;2.15;;
51248;SDS011;39642;47.556;18.728;2022-08-21T03:22:58;9.40;;;2.50;;
51248;SDS011;39642;47.556;18.728;2022-08-21T03:25:25;8.13;;;2.45;;
51248;SDS011;39642;47.556;18.728;2022-08-21T03:27:52;8.23;;;2.40;;
51248;SDS011;39642;47.556;18.728;2022-08-21T03:30:19;8.40;;;2.60;;
51248;SDS011;39642;47.556;18.728;2022-08-21T03:32:48;7.80;;;2.42;;
51248;SDS011;39642;47.556;18.728;2022-08-21T03:35:16;8.00;;;2.50;;
51248;SDS011;39642;47.556;18.728;2022-08-21T03:37:43;7.93;;;2.50;;
51248;SDS011;39642;47.556;18.728;2022-08-21T03:40:10;10.40;;;2.72;;
51248;SDS011;39642;47.556;18.728;2022-08-21T03:42:38;9.02;;;3.12;;
51248;SDS011;39642;47.556;18.728;2022-08-21T03:45:04;8.13;;;2.70;;
51248;SDS011;39642;47.556;18.728;2022-08-21T03:47:30;7.95;;;2.75;;
51248;SDS011;39642;47.556;18.728;2022-08-21T03:49:56;8.75;;;2.92;;
51248;SDS011;39642;47.556;18.728;2022-08-21T03:52:22;9.13;;;3.00;;
51248;SDS011;39642;47.556;18.728;2022-08-21T03:54:48;8.25;;;2.70;;
51248;SDS011;39642;47.556;18.728;2022-08-21T03:57:15;8.52;;;2.65;;
51248;SDS011;39642;47.556;18.728;2022-08-21T03:59:42;9.23;;;2.70;;
51248;SDS011;39642;47.556;18.728;2022-08-21T04:02:09;8.45;;;2.62;;
51248;SDS011;39642;47.556;18.728;2022-08-21T04:04:36;7.47;;;2.53;;
51248;SDS011;39642;47.556;18.728;2022-08-21T04:07:02;9.13;;;2.70;;
51248;SDS011;39642;47.556;18.728;2022-08-21T04:09:29;7.93;;;2.65;;
51248;SDS011;39642;47.556;18.728;2022-08-21T04:11:56;8.23;;;2.70;;
51248;SDS011;39642;47.556;18.728;2022-08-21T04:14:22;9.57;;;2.80;;
51248;SDS011;39642;47.556;18.728;2022-08-21T04:16:48;8.07;;;2.70;;
51248;SDS011;39642;47.556;18.728;2022-08-21T04:19:14;8.30;;;2.70;;
51248;SDS011;39642;47.556;18.728;2022-08-21T04:21:41;9.32;;;2.92;;
51248;SDS011;39642;47.556;18.728;2022-08-21T04:24:08;8.15;;;2.60;;
51248;SDS011;39642;47.556;18.728;2022-08-21T04:26:35;8.93;;;3.00;;
51248;SDS011;39642;47.556;18.728;2022-08-21T04:29:03;9.38;;;2.85;;
51248;SDS011;39642;47.556;18.728;2022-08-21T04:31:32;8.15;;;2.60;;
51248;SDS011;39642;47.556;18.728;2022-08-21T04:33:59;8.70;;;2.80;;
51248;SDS011;39642;47.556;18.728;2022-08-21T04:36:25;8.10;;;2.75;;
51248;SDS011;39642;47.556;18.728;2022-08-21T04:38:51;9.00;;;2.95;;
51248;SDS011;39642;47.556;18.728;2022-08-21T04:41:17;8.15;;;2.60;;
51248;SDS011;39642;47.556;18.728;2022-08-21T04:43:44;8.38;;;2.70;;
51248;SDS011;39642;47.556;18.728;2022-08-21T04:46:09;8.50;;;2.60;;
51248;SDS011;39642;47.556;18.728;2022-08-21T04:48:36;8.52;;;2.67;;
51248;SDS011;39642;47.556;18.728;2022-08-21T04:51:09;8.93;;;2.85;;
51248;SDS011;39642;47.556;18.728;2022-08-21T04:56:11;8.50;;;2.72;;
51248;SDS011;39642;47.556;18.728;2022-08-21T04:58:41;8.32;;;2.85;;
51248;SDS011;39642;47.556;18.728;2022-08-21T05:01:09;7.87;;;2.70;;
51248;SDS011;39642;47.556;18.728;2022-08-21T05:03:38;9.50;;;2.58;;
51248;SDS011;39642;47.556;18.728;2022-08-21T05:06:07;7.97;;;2.50;;
51248;SDS011;39642;47.556;18.728;2022-08-21T05:08:35;9.70;;;2.53;;
51248;SDS011;39642;47.556;18.728;2022-08-21T05:11:03;8.75;;;2.70;;
51248;SDS011;39642;47.556;18.728;2022-08-21T05:13:30;8.88;;;2.67;;
51248;SDS011;39642;47.556;18.728;2022-08-21T05:15:57;8.02;;;2.60;;
51248;SDS011;39642;47.556;18.728;2022-08-21T05:18:24;7.90;;;2.50;;
51248;SDS011;39642;47.556;18.728;2022-08-21T05:20:50;8.10;;;2.45;;
51248;SDS011;39642;47.556;18.728;2022-08-21T05:23:16;7.03;;;2.30;;
51248;SDS011;39642;47.556;18.728;2022-08-21T05:25:42;7.50;;;2.70;;
51248;SDS011;39642;47.556;18.728;2022-08-21T05:28:09;9.20;;;2.80;;
51248;SDS011;39642;47.556;18.728;2022-08-21T05:30:36;8.00;;;2.20;;
51248;SDS011;39642;47.556;18.728;2022-08-21T05:33:03;8.02;;;2.40;;
51248;SDS011;39642;47.556;18.728;2022-08-21T05:35:31;8.38;;;2.30;;
51248;SDS011;39642;47.556;18.728;2022-08-21T05:37:57;8.65;;;2.50;;
51248;SDS011;39642;47.556;18.728;2022-08-21T05:40:25;7.35;;;2.37;;
51248;SDS011;39642;47.556;18.728;2022-08-21T05:42:52;7.47;;;2.35;;
51248;SDS011;39642;47.556;18.728;2022-08-21T05:45:19;6.72;;;2.20;;
51248;SDS011;39642;47.556;18.728;2022-08-21T05:47:46;7.93;;;2.30;;
51248;SDS011;39642;47.556;18.728;2022-08-21T05:50:12;7.78;;;2.22;;
51248;SDS011;39642;47.556;18.728;2022-08-21T05:52:38;8.65;;;2.45;;
51248;SDS011;39642;47.556;18.728;2022-08-21T05:55:04;7.62;;;2.20;;
51248;SDS011;39642;47.556;18.728;2022-08-21T05:57:30;7.80;;;2.50;;
51248;SDS011;39642;47.556;18.728;2022-08-21T05:59:56;9.25;;;2.50;;
51248;SDS011;39642;47.556;18.728;2022-08-21T06:02:22;8.80;;;2.62;;
51248;SDS011;39642;47.556;18.728;2022-08-21T06:04:49;7.18;;;2.28;;
51248;SDS011;39642;47.556;18.728;2022-08-21T06:07:15;8.52;;;2.40;;
51248;SDS011;39642;47.556;18.728;2022-08-21T06:09:41;7.75;;;2.40;;
51248;SDS011;39642;47.556;18.728;2022-08-21T06:12:08;6.82;;;2.20;;
51248;SDS011;39642;47.556;18.728;2022-08-21T06:14:36;7.87;;;2.30;;
51248;SDS011;39642;47.556;18.728;2022-08-21T06:17:07;7.22;;;2.30;;
51248;SDS011;39642;47.556;18.728;2022-08-21T06:19:34;8.00;;;2.28;;
51248;SDS011;39642;47.556;18.728;2022-08-21T06:22:00;6.70;;;2.28;;
51248;SDS011;39642;47.556;18.728;2022-08-21T06:24:26;6.82;;;2.20;;
51248;SDS011;39642;47.556;18.728;2022-08-21T06:26:52;7.50;;;2.22;;
51248;SDS011;39642;47.556;18.728;2022-08-21T06:29:19;7.07;;;2.35;;
51248;SDS011;39642;47.556;18.728;2022-08-21T06:31:46;7.43;;;2.28;;
51248;SDS011;39642;47.556;18.728;2022-08-21T06:34:13;6.70;;;2.05;;
51248;SDS011;39642;47.556;18.728;2022-08-21T06:36:40;7.05;;;2.35;;
51248;SDS011;39642;47.556;18.728;2022-08-21T06:39:07;8.10;;;2.40;;
51248;SDS011;39642;47.556;18.728;2022-08-21T06:41:33;8.43;;;2.53;;
51248;SDS011;39642;47.556;18.728;2022-08-21T06:43:59;8.75;;;2.30;;
51248;SDS011;39642;47.556;18.728;2022-08-21T06:46:26;7.47;;;2.22;;
51248;SDS011;39642;47.556;18.728;2022-08-21T06:48:54;8.07;;;2.15;;
51248;SDS011;39642;47.556;18.728;2022-08-21T06:51:22;7.82;;;2.30;;
51248;SDS011;39642;47.556;18.728;2022-08-21T06:53:48;6.75;;;2.05;;
51248;SDS011;39642;47.556;18.728;2022-08-21T06:56:15;7.70;;;2.33;;
51248;SDS011;39642;47.556;18.728;2022-08-21T06:58:40;6.53;;;2.10;;
51248;SDS011;39642;47.556;18.728;2022-08-21T07:01:06;8.40;;;2.30;;
51248;SDS011;39642;47.556;18.728;2022-08-21T07:03:37;7.28;;;2.10;;
51248;SDS011;39642;47.556;18.728;2022-08-21T07:06:05;7.07;;;2.28;;
51248;SDS011;39642;47.556;18.728;2022-08-21T07:08:32;7.47;;;2.50;;
51248;SDS011;39642;47.556;18.728;2022-08-21T07:10:59;7.57;;;2.12;;
51248;SDS011;39642;47.556;18.728;2022-08-21T07:13:27;8.80;;;2.25;;
51248;SDS011;39642;47.556;18.728;2022-08-21T07:15:53;7.97;;;2.22;;
51248;SDS011;39642;47.556;18.728;2022-08-21T07:18:19;7.12;;;2.20;;
51248;SDS011;39642;47.556;18.728;2022-08-21T07:20:45;7.07;;;2.20;;
51248;SDS011;39642;47.556;18.728;2022-08-21T07:23:16;8.30;;;2.60;;
51248;SDS011;39642;47.556;18.728;2022-08-21T07:25:53;6.95;;;2.20;;
51248;SDS011;39642;47.556;18.728;2022-08-21T07:28:19;7.72;;;2.58;;
51248;SDS011;39642;47.556;18.728;2022-08-21T07:30:46;8.43;;;2.33;;
51248;SDS011;39642;47.556;18.728;2022-08-21T07:33:17;8.20;;;2.35;;
51248;SDS011;39642;47.556;18.728;2022-08-21T07:35:42;10.65;;;2.70;;
51248;SDS011;39642;47.556;18.728;2022-08-21T07:38:09;7.03;;;2.35;;
51248;SDS011;39642;47.556;18.728;2022-08-21T07:40:35;7.22;;;2.15;;
51248;SDS011;39642;47.556;18.728;2022-08-21T07:43:01;8.32;;;2.50;;
51248;SDS011;39642;47.556;18.728;2022-08-21T07:45:27;8.82;;;2.40;;
51248;SDS011;39642;47.556;18.728;2022-08-21T07:47:53;7.85;;;2.50;;
51248;SDS011;39642;47.556;18.728;2022-08-21T07:50:19;9.23;;;2.45;;
51248;SDS011;39642;47.556;18.728;2022-08-21T07:52:45;8.45;;;2.60;;
51248;SDS011;39642;47.556;18.728;2022-08-21T07:55:13;6.85;;;2.17;;
51248;SDS011;39642;47.556;18.728;2022-08-21T07:57:41;9.13;;;2.58;;
51248;SDS011;39642;47.556;18.728;2022-08-21T08:00:09;7.68;;;2.35;;
51248;SDS011;39642;47.556;18.728;2022-08-21T08:02:39;8.55;;;2.20;;
51248;SDS011;39642;47.556;18.728;2022-08-21T08:05:06;8.60;;;2.60;;
51248;SDS011;39642;47.556;18.728;2022-08-21T08:07:34;8.10;;;2.55;;
51248;SDS011;39642;47.556;18.728;2022-08-21T08:10:01;7.15;;;2.30;;
51248;SDS011;39642;47.556;18.728;2022-08-21T08:12:29;6.82;;;2.40;;
51248;SDS011;39642;47.556;18.728;2022-08-21T08:14:58;8.95;;;2.53;;
51248;SDS011;39642;47.556;18.728;2022-08-21T08:17:25;7.60;;;2.40;;
51248;SDS011;39642;47.556;18.728;2022-08-21T08:19:52;8.15;;;2.62;;
51248;SDS011;39642;47.556;18.728;2022-08-21T08:22:20;6.25;;;2.28;;
51248;SDS011;39642;47.556;18.728;2022-08-21T08:24:50;8.45;;;2.53;;
51248;SDS011;39642;47.556;18.728;2022-08-21T08:27:16;7.90;;;2.45;;
51248;SDS011;39642;47.556;18.728;2022-08-21T08:29:43;8.98;;;2.65;;
51248;SDS011;39642;47.556;18.728;2022-08-21T08:32:10;9.05;;;2.58;;
51248;SDS011;39642;47.556;18.728;2022-08-21T08:34:37;8.75;;;2.40;;
51248;SDS011;39642;47.556;18.728;2022-08-21T08:37:04;7.20;;;2.30;;
51248;SDS011;39642;47.556;18.728;2022-08-21T08:39:31;9.07;;;2.42;;
51248;SDS011;39642;47.556;18.728;2022-08-21T08:42:08;11.20;;;2.70;;
51248;SDS011;39642;47.556;18.728;2022-08-21T08:44:46;9.13;;;2.72;;
51248;SDS011;39642;47.556;18.728;2022-08-21T08:47:13;8.32;;;2.62;;
51248;SDS011;39642;47.556;18.728;2022-08-21T08:52:31;10.80;;;2.75;;
51248;SDS011;39642;47.556;18.728;2022-08-21T08:55:37;7.82;;;2.40;;
51248;SDS011;39642;47.556;18.728;2022-08-21T08:58:06;9.07;;;2.80;;
51248;SDS011;39642;47.556;18.728;2022-08-21T09:00:37;8.10;;;2.55;;
51248;SDS011;39642;47.556;18.728;2022-08-21T09:03:04;9.18;;;2.90;;
51248;SDS011;39642;47.556;18.728;2022-08-21T09:05:36;8.55;;;2.70;;
51248;SDS011;39642;47.556;18.728;2022-08-21T09:14:38;9.90;;;2.67;;
51248;SDS011;39642;47.556;18.728;2022-08-21T09:17:19;9.70;;;3.12;;
51248;SDS011;39642;47.556;18.728;2022-08-21T09:23:11;8.73;;;2.55;;
51248;SDS011;39642;47.556;18.728;2022-08-21T09:28:11;9.88;;;2.67;;
51248;SDS011;39642;47.556;18.728;2022-08-21T09:30:40;8.70;;;2.72;;
51248;SDS011;39642;47.556;18.728;2022-08-21T09:33:07;10.82;;;3.17;;
51248;SDS011;39642;47.556;18.728;2022-08-21T09:35:34;8.32;;;2.67;;
51248;SDS011;39642;47.556;18.728;2022-08-21T09:38:04;10.05;;;2.92;;
51248;SDS011;39642;47.556;18.728;2022-08-21T09:40:35;9.02;;;2.40;;
51248;SDS011;39642;47.556;18.728;2022-08-21T09:43:25;7.15;;;2.50;;
51248;SDS011;39642;47.556;18.728;2022-08-21T09:46:02;9.18;;;2.75;;
51248;SDS011;39642;47.556;18.728;2022-08-21T09:48:40;9.27;;;2.70;;
51248;SDS011;39642;47.556;18.728;2022-08-21T09:51:10;7.97;;;2.50;;
51248;SDS011;39642;47.556;18.728;2022-08-21T09:53:45;8.77;;;2.95;;
51248;SDS011;39642;47.556;18.728;2022-08-21T09:56:25;7.37;;;2.40;;
51248;SDS011;39642;47.556;18.728;2022-08-21T09:59:26;8.35;;;2.60;;
51248;SDS011;39642;47.556;18.728;2022-08-21T10:02:00;7.97;;;2.65;;
51248;SDS011;39642;47.556;18.728;2022-08-21T10:04:29;8.75;;;2.90;;
51248;SDS011;39642;47.556;18.728;2022-08-21T10:07:08;8.23;;;2.83;;
51248;SDS011;39642;47.556;18.728;2022-08-21T10:09:40;9.00;;;2.47;;
51248;SDS011;39642;47.556;18.728;2022-08-21T10:12:15;9.60;;;2.70;;
51248;SDS011;39642;47.556;18.728;2022-08-21T10:14:51;9.23;;;2.87;;
51248;SDS011;39642;47.556;18.728;2022-08-21T10:20:20;9.20;;;2.85;;
51248;SDS011;39642;47.556;18.728;2022-08-21T10:26:02;8.00;;;2.50;;
51248;SDS011;39642;47.556;18.728;2022-08-21T10:37:43;7.78;;;2.62;;
51248;SDS011;39642;47.556;18.728;2022-08-21T10:43:02;8.32;;;2.58;;
51248;SDS011;39642;47.556;18.728;2022-08-21T10:48:33;7.85;;;2.50;;
51248;SDS011;39642;47.556;18.728;2022-08-21T10:56:02;10.23;;;2.92;;
51248;SDS011;39642;47.556;18.728;2022-08-21T10:58:42;11.02;;;2.87;;
51248;SDS011;39642;47.556;18.728;2022-08-21T11:01:17;8.63;;;2.80;;
51248;SDS011;39642;47.556;18.728;2022-08-21T11:04:13;9.38;;;2.83;;
51248;SDS011;39642;47.556;18.728;2022-08-21T11:06:49;9.60;;;2.90;;
51248;SDS011;39642;47.556;18.728;2022-08-21T11:09:24;8.35;;;2.95;;
51248;SDS011;39642;47.556;18.728;2022-08-21T11:17:15;8.68;;;3.10;;
51248;SDS011;39642;47.556;18.728;2022-08-21T11:19:50;8.75;;;2.65;;
51248;SDS011;39642;47.556;18.728;2022-08-21T11:22:28;9.30;;;2.80;;
51248;SDS011;39642;47.556;18.728;2022-08-21T11:25:04;7.90;;;2.70;;
51248;SDS011;39642;47.556;18.728;2022-08-21T11:27:51;7.93;;;2.80;;
51248;SDS011;39642;47.556;18.728;2022-08-21T11:30:21;8.65;;;2.80;;
51248;SDS011;39642;47.556;18.728;2022-08-21T11:33:20;8.35;;;2.70;;
51248;SDS011;39642;47.556;18.728;2022-08-21T11:35:50;9.32;;;2.80;;
51248;SDS011;39642;47.556;18.728;2022-08-21T11:38:35;9.60;;;2.97;;
51248;SDS011;39642;47.556;18.728;2022-08-21T11:41:18;9.43;;;2.90;;
51248;SDS011;39642;47.556;18.728;2022-08-21T11:43:47;8.88;;;2.70;;
51248;SDS011;39642;47.556;18.728;2022-08-21T11:51:50;7.87;;;2.53;;
51248;SDS011;39642;47.556;18.728;2022-08-21T11:54:48;7.90;;;2.80;;
51248;SDS011;39642;47.556;18.728;2022-08-21T11:57:21;9.02;;;2.65;;
51248;SDS011;39642;47.556;18.728;2022-08-21T12:02:40;7.70;;;2.70;;
51248;SDS011;39642;47.556;18.728;2022-08-21T12:05:22;8.43;;;2.75;;
51248;SDS011;39642;47.556;18.728;2022-08-21T12:08:05;8.80;;;2.60;;
51248;SDS011;39642;47.556;18.728;2022-08-21T12:10:33;8.75;;;2.80;;
51248;SDS011;39642;47.556;18.728;2022-08-21T12:13:11;8.50;;;2.83;;
51248;SDS011;39642;47.556;18.728;2022-08-21T12:15:49;11.85;;;3.08;;
51248;SDS011;39642;47.556;18.728;2022-08-21T12:18:23;8.18;;;3.00;;
51248;SDS011;39642;47.556;18.728;2022-08-21T12:20:57;8.00;;;2.45;;
51248;SDS011;39642;47.556;18.728;2022-08-21T12:28:26;8.15;;;2.80;;
51248;SDS011;39642;47.556;18.728;2022-08-21T12:30:54;8.57;;;2.60;;
51248;SDS011;39642;47.556;18.728;2022-08-21T12:33:22;7.78;;;2.45;;
51248;SDS011;39642;47.556;18.728;2022-08-21T12:36:04;8.75;;;2.75;;
51248;SDS011;39642;47.556;18.728;2022-08-21T12:38:33;7.85;;;2.60;;
51248;SDS011;39642;47.556;18.728;2022-08-21T12:41:11;9.30;;;2.65;;
51248;SDS011;39642;47.556;18.728;2022-08-21T12:43:43;9.30;;;3.05;;
51248;SDS011;39642;47.556;18.728;2022-08-21T12:46:18;8.35;;;2.97;;
51248;SDS011;39642;47.556;18.728;2022-08-21T12:48:54;9.02;;;2.92;;
51248;SDS011;39642;47.556;18.728;2022-08-21T12:51:37;7.75;;;2.60;;
51248;SDS011;39642;47.556;18.728;2022-08-21T12:54:27;8.88;;;3.12;;
51248;SDS011;39642;47.556;18.728;2022-08-21T12:57:00;8.10;;;2.70;;
51248;SDS011;39642;47.556;18.728;2022-08-21T12:59:28;8.73;;;2.85;;
51248;SDS011;39642;47.556;18.728;2022-08-21T13:01:55;8.75;;;2.62;;
51248;SDS011;39642;47.556;18.728;2022-08-21T13:04:41;8.73;;;2.92;;
51248;SDS011;39642;47.556;18.728;2022-08-21T13:07:09;8.98;;;3.00;;
51248;SDS011;39642;47.556;18.728;2022-08-21T13:09:47;8.93;;;2.83;;
51248;SDS011;39642;47.556;18.728;2022-08-21T13:12:16;8.55;;;2.58;;
51248;SDS011;39642;47.556;18.728;2022-08-21T13:14:45;8.70;;;2.70;;
51248;SDS011;39642;47.556;18.728;2022-08-21T13:17:16;8.40;;;2.83;;
51248;SDS011;39642;47.556;18.728;2022-08-21T13:20:01;8.88;;;2.90;;
51248;SDS011;39642;47.556;18.728;2022-08-21T13:22:47;7.87;;;2.80;;
51248;SDS011;39642;47.556;18.728;2022-08-21T13:25:14;9.13;;;2.90;;
51248;SDS011;39642;47.556;18.728;2022-08-21T13:27:42;8.23;;;2.90;;
51248;SDS011;39642;47.556;18.728;2022-08-21T13:30:17;8.15;;;2.62;;
51248;SDS011;39642;47.556;18.728;2022-08-21T13:32:47;9.20;;;3.10;;
51248;SDS011;39642;47.556;18.728;2022-08-21T13:37:47;7.68;;;2.60;;
51248;SDS011;39642;47.556;18.728;2022-08-21T13:40:18;8.55;;;2.80;;
51248;SDS011;39642;47.556;18.728;2022-08-21T13:42:48;7.85;;;2.60;;
51248;SDS011;39642;47.556;18.728;2022-08-21T13:45:17;9.00;;;2.70;;
51248;SDS011;39642;47.556;18.728;2022-08-21T13:47:50;7.47;;;2.60;;
51248;SDS011;39642;47.556;18.728;2022-08-21T13:50:18;7.78;;;2.67;;
51248;SDS011;39642;47.556;18.728;2022-08-21T13:52:53;8.10;;;2.80;;
51248;SDS011;39642;47.556;18.728;2022-08-21T13:55:22;9.77;;;2.60;;
51248;SDS011;39642;47.556;18.728;2022-08-21T13:57:58;7.70;;;2.60;;
51248;SDS011;39642;47.556;18.728;2022-08-21T14:00:26;8.30;;;2.83;;
51248;SDS011;39642;47.556;18.728;2022-08-21T14:02:56;7.40;;;2.30;;
51248;SDS011;39642;47.556;18.728;2022-08-21T14:05:31;8.15;;;2.50;;
51248;SDS011;39642;47.556;18.728;2022-08-21T14:08:02;6.95;;;2.40;;
51248;SDS011;39642;47.556;18.728;2022-08-21T14:10:35;8.13;;;2.28;;
51248;SDS011;39642;47.556;18.728;2022-08-21T14:13:06;8.05;;;2.60;;
51248;SDS011;39642;47.556;18.728;2022-08-21T14:15:33;8.52;;;2.40;;
51248;SDS011;39642;47.556;18.728;2022-08-21T14:18:08;8.10;;;2.40;;
51248;SDS011;39642;47.556;18.728;2022-08-21T14:20:42;7.30;;;2.50;;
51248;SDS011;39642;47.556;18.728;2022-08-21T14:23:08;9.35;;;2.65;;
51248;SDS011;39642;47.556;18.728;2022-08-21T14:25:40;8.65;;;2.50;;
51248;SDS011;39642;47.556;18.728;2022-08-21T14:30:44;8.10;;;2.53;;
51248;SDS011;39642;47.556;18.728;2022-08-21T14:33:11;8.20;;;2.37;;
51248;SDS011;39642;47.556;18.728;2022-08-21T14:35:39;8.57;;;2.70;;
51248;SDS011;39642;47.556;18.728;2022-08-21T14:38:13;7.53;;;2.47;;
51248;SDS011;39642;47.556;18.728;2022-08-21T14:40:40;7.78;;;2.42;;
51248;SDS011;39642;47.556;18.728;2022-08-21T14:43:07;7.47;;;2.50;;
51248;SDS011;39642;47.556;18.728;2022-08-21T14:45:33;7.85;;;2.58;;
51248;SDS011;39642;47.556;18.728;2022-08-21T14:47:59;7.50;;;2.50;;
51248;SDS011;39642;47.556;18.728;2022-08-21T14:50:25;7.95;;;2.58;;
51248;SDS011;39642;47.556;18.728;2022-08-21T14:52:51;7.93;;;2.47;;
51248;SDS011;39642;47.556;18.728;2022-08-21T14:55:18;7.18;;;2.50;;
51248;SDS011;39642;47.556;18.728;2022-08-21T14:57:45;7.87;;;2.70;;
51248;SDS011;39642;47.556;18.728;2022-08-21T15:00:15;8.32;;;2.90;;
51248;SDS011;39642;47.556;18.728;2022-08-21T15:02:45;8.80;;;2.90;;
51248;SDS011;39642;47.556;18.728;2022-08-21T15:05:12;8.60;;;2.90;;
51248;SDS011;39642;47.556;18.728;2022-08-21T15:07:38;8.00;;;2.80;;
51248;SDS011;39642;47.556;18.728;2022-08-21T15:10:04;7.45;;;2.60;;
51248;SDS011;39642;47.556;18.728;2022-08-21T15:12:31;7.93;;;2.60;;
51248;SDS011;39642;47.556;18.728;2022-08-21T15:14:57;8.13;;;2.58;;
51248;SDS011;39642;47.556;18.728;2022-08-21T15:17:23;8.20;;;2.62;;
51248;SDS011;39642;47.556;18.728;2022-08-21T15:19:50;8.55;;;2.62;;
51248;SDS011;39642;47.556;18.728;2022-08-21T15:22:16;8.20;;;2.60;;
51248;SDS011;39642;47.556;18.728;2022-08-21T15:24:42;8.10;;;2.60;;
51248;SDS011;39642;47.556;18.728;2022-08-21T15:27:08;8.68;;;2.50;;
51248;SDS011;39642;47.556;18.728;2022-08-21T15:29:35;9.98;;;2.58;;
51248;SDS011;39642;47.556;18.728;2022-08-21T15:32:03;8.40;;;2.62;;
51248;SDS011;39642;47.556;18.728;2022-08-21T15:34:42;7.55;;;2.40;;
51248;SDS011;39642;47.556;18.728;2022-08-21T15:37:09;7.90;;;2.30;;
51248;SDS011;39642;47.556;18.728;2022-08-21T15:39:35;8.00;;;2.53;;
51248;SDS011;39642;47.556;18.728;2022-08-21T15:42:01;7.22;;;2.20;;
51248;SDS011;39642;47.556;18.728;2022-08-21T15:44:28;8.10;;;2.30;;
51248;SDS011;39642;47.556;18.728;2022-08-21T15:46:54;8.05;;;2.53;;
51248;SDS011;39642;47.556;18.728;2022-08-21T15:49:21;6.80;;;2.17;;
51248;SDS011;39642;47.556;18.728;2022-08-21T15:51:49;7.95;;;2.50;;
51248;SDS011;39642;47.556;18.728;2022-08-21T15:54:15;6.93;;;2.22;;